sensor_id;sensor_type;location;lat;lon;timestamp;P1;durP1;ratioP1;P2;durP2;ratioP2
4486;SDS011;2256;48.740;9.106;2024-01-30T00:01:54;6.70;;;3.65;;
4486;SDS011;2256;48.740;9.106;2024-01-30T00:04:20;8.15;;;3.95;;
4486;SDS011;2256;48.740;9.106;2024-01-30T00:06:50;8.80;;;4.55;;
4486;SDS011;2256;48.740;9.106;2024-01-30T00:09:17;7.00;;;3.72;;
4486;SDS011;2256;48.740;9.106;2024-01-30T00:11:44;11.85;;;4.50;;
4486;SDS011;2256;48.740;9.106;2024-01-30T00:14:11;6.82;;;4.15;;
4486;SDS011;2256;48.740;9.106;2024-01-30T00:16:39;11.13;;;4.78;;
4486;SDS011;2256;48.740;9.106;2024-01-30T00:19:05;7.72;;;4.10;;
4486;SDS011;2256;48.740;9.106;2024-01-30T00:21:35;6.95;;;4.13;;
4486;SDS011;2256;48.740;9.106;2024-01-30T00:24:03;9.63;;;3.90;;
4486;SDS011;2256;48.740;9.106;2024-01-30T00:26:38;12.57;;;4.53;;
4486;SDS011;2256;48.740;9.106;2024-01-30T00:29:05;7.85;;;4.05;;
4486;SDS011;2256;48.740;9.106;2024-01-30T00:31:33;9.10;;;4.00;;
4486;SDS011;2256;48.740;9.106;2024-01-30T00:36:58;9.38;;;4.30;;
4486;SDS011;2256;48.740;9.106;2024-01-30T00:39:34;8.18;;;3.80;;
4486;SDS011;2256;48.740;9.106;2024-01-30T00:42:00;8.70;;;4.13;;
4486;SDS011;2256;48.740;9.106;2024-01-30T00:44:27;10.40;;;4.83;;
4486;SDS011;2256;48.740;9.106;2024-01-30T00:46:54;5.65;;;3.22;;
4486;SDS011;2256;48.740;9.106;2024-01-30T00:49:21;7.75;;;3.85;;
4486;SDS011;2256;48.740;9.106;2024-01-30T00:51:47;11.60;;;4.82;;
4486;SDS011;2256;48.740;9.106;2024-01-30T00:54:14;16.02;;;4.03;;
4486;SDS011;2256;48.740;9.106;2024-01-30T00:56:43;5.18;;;3.67;;
4486;SDS011;2256;48.740;9.106;2024-01-30T00:59:12;5.70;;;3.72;;
4486;SDS011;2256;48.740;9.106;2024-01-30T01:01:40;8.10;;;4.35;;
4486;SDS011;2256;48.740;9.106;2024-01-30T01:04:07;5.68;;;3.47;;
4486;SDS011;2256;48.740;9.106;2024-01-30T01:06:34;3.28;;;2.88;;
4486;SDS011;2256;48.740;9.106;2024-01-30T01:09:02;5.28;;;3.03;;
4486;SDS011;2256;48.740;9.106;2024-01-30T01:11:29;4.38;;;3.50;;
4486;SDS011;2256;48.740;9.106;2024-01-30T01:13:57;8.38;;;4.35;;
4486;SDS011;2256;48.740;9.106;2024-01-30T01:16:24;10.05;;;4.18;;
4486;SDS011;2256;48.740;9.106;2024-01-30T01:18:51;6.05;;;3.70;;
4486;SDS011;2256;48.740;9.106;2024-01-30T01:21:18;7.80;;;3.92;;
4486;SDS011;2256;48.740;9.106;2024-01-30T01:23:45;6.60;;;3.47;;
4486;SDS011;2256;48.740;9.106;2024-01-30T01:26:11;9.07;;;3.55;;
4486;SDS011;2256;48.740;9.106;2024-01-30T01:28:39;11.75;;;3.85;;
4486;SDS011;2256;48.740;9.106;2024-01-30T01:31:08;6.30;;;4.07;;
4486;SDS011;2256;48.740;9.106;2024-01-30T01:33:35;5.50;;;3.17;;
4486;SDS011;2256;48.740;9.106;2024-01-30T01:36:03;6.22;;;3.92;;
4486;SDS011;2256;48.740;9.106;2024-01-30T01:38:30;5.28;;;3.13;;
4486;SDS011;2256;48.740;9.106;2024-01-30T01:40:58;4.18;;;3.35;;
4486;SDS011;2256;48.740;9.106;2024-01-30T01:43:24;4.82;;;3.20;;
4486;SDS011;2256;48.740;9.106;2024-01-30T01:45:51;6.68;;;3.97;;
4486;SDS011;2256;48.740;9.106;2024-01-30T01:48:19;5.65;;;2.90;;
4486;SDS011;2256;48.740;9.106;2024-01-30T01:50:47;3.83;;;3.00;;
4486;SDS011;2256;48.740;9.106;2024-01-30T01:53:14;5.95;;;3.55;;
4486;SDS011;2256;48.740;9.106;2024-01-30T01:55:42;5.43;;;3.55;;
4486;SDS011;2256;48.740;9.106;2024-01-30T01:58:09;6.85;;;3.25;;
4486;SDS011;2256;48.740;9.106;2024-01-30T02:00:37;10.70;;;3.67;;
4486;SDS011;2256;48.740;9.106;2024-01-30T02:03:07;6.95;;;4.13;;
4486;SDS011;2256;48.740;9.106;2024-01-30T02:05:37;8.40;;;3.75;;
4486;SDS011;2256;48.740;9.106;2024-01-30T02:08:05;7.30;;;3.30;;
4486;SDS011;2256;48.740;9.106;2024-01-30T02:10:33;6.35;;;3.20;;
4486;SDS011;2256;48.740;9.106;2024-01-30T02:13:00;4.55;;;2.90;;
4486;SDS011;2256;48.740;9.106;2024-01-30T02:15:28;4.30;;;2.92;;
4486;SDS011;2256;48.740;9.106;2024-01-30T02:17:56;5.45;;;3.08;;
4486;SDS011;2256;48.740;9.106;2024-01-30T02:20:23;5.93;;;2.67;;
4486;SDS011;2256;48.740;9.106;2024-01-30T02:22:52;5.07;;;3.50;;
4486;SDS011;2256;48.740;9.106;2024-01-30T02:25:29;6.07;;;3.13;;
4486;SDS011;2256;48.740;9.106;2024-01-30T02:27:57;7.03;;;3.17;;
4486;SDS011;2256;48.740;9.106;2024-01-30T02:30:23;7.13;;;3.65;;
4486;SDS011;2256;48.740;9.106;2024-01-30T02:32:50;8.50;;;3.40;;
4486;SDS011;2256;48.740;9.106;2024-01-30T02:35:18;4.53;;;3.15;;
4486;SDS011;2256;48.740;9.106;2024-01-30T02:37:45;6.43;;;2.90;;
4486;SDS011;2256;48.740;9.106;2024-01-30T02:40:13;6.20;;;3.78;;
4486;SDS011;2256;48.740;9.106;2024-01-30T02:42:40;8.18;;;3.13;;
4486;SDS011;2256;48.740;9.106;2024-01-30T02:45:08;7.22;;;3.60;;
4486;SDS011;2256;48.740;9.106;2024-01-30T02:47:36;6.50;;;3.70;;
4486;SDS011;2256;48.740;9.106;2024-01-30T02:50:03;6.80;;;4.20;;
4486;SDS011;2256;48.740;9.106;2024-01-30T02:52:30;6.57;;;3.50;;
4486;SDS011;2256;48.740;9.106;2024-01-30T02:54:57;8.43;;;3.50;;
4486;SDS011;2256;48.740;9.106;2024-01-30T02:57:26;7.13;;;3.63;;
4486;SDS011;2256;48.740;9.106;2024-01-30T02:59:53;9.35;;;3.10;;
4486;SDS011;2256;48.740;9.106;2024-01-30T03:02:19;5.75;;;3.10;;
4486;SDS011;2256;48.740;9.106;2024-01-30T03:04:47;6.05;;;3.83;;
4486;SDS011;2256;48.740;9.106;2024-01-30T03:07:14;5.32;;;3.35;;
4486;SDS011;2256;48.740;9.106;2024-01-30T03:09:41;4.55;;;3.15;;
4486;SDS011;2256;48.740;9.106;2024-01-30T03:12:08;8.48;;;3.88;;
4486;SDS011;2256;48.740;9.106;2024-01-30T03:14:37;10.05;;;3.92;;
4486;SDS011;2256;48.740;9.106;2024-01-30T03:17:03;5.07;;;3.22;;
4486;SDS011;2256;48.740;9.106;2024-01-30T03:19:30;7.32;;;3.80;;
4486;SDS011;2256;48.740;9.106;2024-01-30T03:21:57;6.68;;;3.40;;
4486;SDS011;2256;48.740;9.106;2024-01-30T03:24:24;7.13;;;3.50;;
4486;SDS011;2256;48.740;9.106;2024-01-30T03:26:57;5.30;;;3.70;;
4486;SDS011;2256;48.740;9.106;2024-01-30T03:29:24;6.85;;;3.53;;
4486;SDS011;2256;48.740;9.106;2024-01-30T03:31:52;9.25;;;3.92;;
4486;SDS011;2256;48.740;9.106;2024-01-30T03:34:19;4.82;;;3.10;;
4486;SDS011;2256;48.740;9.106;2024-01-30T03:36:46;5.82;;;3.63;;
4486;SDS011;2256;48.740;9.106;2024-01-30T03:39:13;7.40;;;3.20;;
4486;SDS011;2256;48.740;9.106;2024-01-30T03:41:41;6.65;;;3.53;;
4486;SDS011;2256;48.740;9.106;2024-01-30T03:44:09;8.60;;;4.28;;
4486;SDS011;2256;48.740;9.106;2024-01-30T03:46:36;5.68;;;3.33;;
4486;SDS011;2256;48.740;9.106;2024-01-30T03:49:04;6.05;;;3.38;;
4486;SDS011;2256;48.740;9.106;2024-01-30T03:51:31;5.78;;;3.50;;
4486;SDS011;2256;48.740;9.106;2024-01-30T03:53:58;6.00;;;3.00;;
4486;SDS011;2256;48.740;9.106;2024-01-30T03:56:24;5.93;;;3.58;;
4486;SDS011;2256;48.740;9.106;2024-01-30T03:58:51;7.70;;;4.43;;
4486;SDS011;2256;48.740;9.106;2024-01-30T04:01:18;5.05;;;3.15;;
4486;SDS011;2256;48.740;9.106;2024-01-30T04:03:46;6.10;;;3.05;;
4486;SDS011;2256;48.740;9.106;2024-01-30T04:06:14;6.93;;;3.15;;
4486;SDS011;2256;48.740;9.106;2024-01-30T04:08:42;6.72;;;3.30;;
4486;SDS011;2256;48.740;9.106;2024-01-30T04:11:08;8.18;;;3.13;;
4486;SDS011;2256;48.740;9.106;2024-01-30T04:13:35;3.20;;;2.58;;
4486;SDS011;2256;48.740;9.106;2024-01-30T04:16:02;7.07;;;3.55;;
4486;SDS011;2256;48.740;9.106;2024-01-30T04:18:29;6.00;;;3.67;;
4486;SDS011;2256;48.740;9.106;2024-01-30T04:20:57;8.75;;;3.45;;
4486;SDS011;2256;48.740;9.106;2024-01-30T04:23:27;10.80;;;3.30;;
4486;SDS011;2256;48.740;9.106;2024-01-30T04:25:54;7.65;;;3.45;;
4486;SDS011;2256;48.740;9.106;2024-01-30T04:28:21;7.63;;;3.47;;
4486;SDS011;2256;48.740;9.106;2024-01-30T04:30:47;11.70;;;4.75;;
4486;SDS011;2256;48.740;9.106;2024-01-30T04:33:14;8.95;;;4.30;;
4486;SDS011;2256;48.740;9.106;2024-01-30T04:35:43;8.32;;;4.25;;
4486;SDS011;2256;48.740;9.106;2024-01-30T04:38:10;6.18;;;4.18;;
4486;SDS011;2256;48.740;9.106;2024-01-30T04:40:38;5.45;;;3.70;;
4486;SDS011;2256;48.740;9.106;2024-01-30T04:43:04;9.88;;;4.85;;
4486;SDS011;2256;48.740;9.106;2024-01-30T04:45:31;10.40;;;4.70;;
4486;SDS011;2256;48.740;9.106;2024-01-30T04:47:58;10.05;;;4.38;;
4486;SDS011;2256;48.740;9.106;2024-01-30T04:50:25;11.00;;;4.38;;
4486;SDS011;2256;48.740;9.106;2024-01-30T04:52:52;10.80;;;5.10;;
4486;SDS011;2256;48.740;9.106;2024-01-30T04:55:20;10.07;;;4.43;;
4486;SDS011;2256;48.740;9.106;2024-01-30T04:57:48;8.95;;;4.68;;
4486;SDS011;2256;48.740;9.106;2024-01-30T05:00:15;11.10;;;4.90;;
4486;SDS011;2256;48.740;9.106;2024-01-30T05:02:42;9.82;;;5.03;;
4486;SDS011;2256;48.740;9.106;2024-01-30T05:05:09;10.95;;;4.55;;
4486;SDS011;2256;48.740;9.106;2024-01-30T05:07:37;11.00;;;4.45;;
4486;SDS011;2256;48.740;9.106;2024-01-30T05:10:05;12.63;;;4.57;;
4486;SDS011;2256;48.740;9.106;2024-01-30T05:12:31;15.48;;;6.80;;
4486;SDS011;2256;48.740;9.106;2024-01-30T05:14:59;10.57;;;5.18;;
4486;SDS011;2256;48.740;9.106;2024-01-30T05:17:27;11.05;;;4.55;;
4486;SDS011;2256;48.740;9.106;2024-01-30T05:19:54;20.40;;;4.13;;
4486;SDS011;2256;48.740;9.106;2024-01-30T05:22:21;8.20;;;4.40;;
4486;SDS011;2256;48.740;9.106;2024-01-30T05:24:47;8.77;;;4.68;;
4486;SDS011;2256;48.740;9.106;2024-01-30T05:27:14;8.40;;;4.55;;
4486;SDS011;2256;48.740;9.106;2024-01-30T05:29:41;9.85;;;4.60;;
4486;SDS011;2256;48.740;9.106;2024-01-30T05:32:09;8.45;;;4.45;;
4486;SDS011;2256;48.740;9.106;2024-01-30T05:34:36;9.68;;;3.60;;
4486;SDS011;2256;48.740;9.106;2024-01-30T05:37:03;6.85;;;3.22;;
4486;SDS011;2256;48.740;9.106;2024-01-30T05:39:30;5.78;;;3.72;;
4486;SDS011;2256;48.740;9.106;2024-01-30T05:41:58;3.72;;;3.28;;
4486;SDS011;2256;48.740;9.106;2024-01-30T05:44:25;6.25;;;3.85;;
4486;SDS011;2256;48.740;9.106;2024-01-30T05:46:51;9.98;;;3.85;;
4486;SDS011;2256;48.740;9.106;2024-01-30T05:49:19;10.45;;;4.75;;
4486;SDS011;2256;48.740;9.106;2024-01-30T05:51:47;11.18;;;4.40;;
4486;SDS011;2256;48.740;9.106;2024-01-30T05:54:13;5.20;;;3.72;;
4486;SDS011;2256;48.740;9.106;2024-01-30T05:56:40;8.00;;;4.13;;
4486;SDS011;2256;48.740;9.106;2024-01-30T05:59:07;4.70;;;3.35;;
4486;SDS011;2256;48.740;9.106;2024-01-30T06:01:33;5.22;;;3.55;;
4486;SDS011;2256;48.740;9.106;2024-01-30T06:04:00;7.60;;;3.97;;
4486;SDS011;2256;48.740;9.106;2024-01-30T06:06:29;7.82;;;4.68;;
4486;SDS011;2256;48.740;9.106;2024-01-30T06:08:56;8.80;;;4.13;;
4486;SDS011;2256;48.740;9.106;2024-01-30T06:11:22;9.80;;;4.22;;
4486;SDS011;2256;48.740;9.106;2024-01-30T06:13:49;8.98;;;5.07;;
4486;SDS011;2256;48.740;9.106;2024-01-30T06:16:16;11.18;;;5.32;;
4486;SDS011;2256;48.740;9.106;2024-01-30T06:18:44;6.20;;;4.05;;
4486;SDS011;2256;48.740;9.106;2024-01-30T06:21:11;13.60;;;5.03;;
4486;SDS011;2256;48.740;9.106;2024-01-30T06:23:39;15.93;;;5.88;;
4486;SDS011;2256;48.740;9.106;2024-01-30T06:26:06;14.38;;;6.15;;
4486;SDS011;2256;48.740;9.106;2024-01-30T06:28:33;24.00;;;6.00;;
4486;SDS011;2256;48.740;9.106;2024-01-30T06:31:00;19.17;;;6.57;;
4486;SDS011;2256;48.740;9.106;2024-01-30T06:33:27;13.38;;;5.20;;
4486;SDS011;2256;48.740;9.106;2024-01-30T06:35:54;16.00;;;6.45;;
4486;SDS011;2256;48.740;9.106;2024-01-30T06:38:21;17.10;;;6.18;;
4486;SDS011;2256;48.740;9.106;2024-01-30T06:40:49;14.88;;;4.95;;
4486;SDS011;2256;48.740;9.106;2024-01-30T06:43:17;8.45;;;4.55;;
4486;SDS011;2256;48.740;9.106;2024-01-30T06:45:45;14.00;;;6.25;;
4486;SDS011;2256;48.740;9.106;2024-01-30T06:48:11;14.38;;;5.22;;
4486;SDS011;2256;48.740;9.106;2024-01-30T06:50:38;10.00;;;5.18;;
4486;SDS011;2256;48.740;9.106;2024-01-30T06:53:05;10.77;;;4.68;;
4486;SDS011;2256;48.740;9.106;2024-01-30T06:55:32;7.93;;;4.57;;
4486;SDS011;2256;48.740;9.106;2024-01-30T06:58:00;11.85;;;5.00;;
4486;SDS011;2256;48.740;9.106;2024-01-30T07:00:26;15.05;;;4.43;;
4486;SDS011;2256;48.740;9.106;2024-01-30T07:02:53;9.75;;;4.50;;
4486;SDS011;2256;48.740;9.106;2024-01-30T07:05:20;9.02;;;4.55;;
4486;SDS011;2256;48.740;9.106;2024-01-30T07:10:22;13.70;;;3.75;;
4486;SDS011;2256;48.740;9.106;2024-01-30T07:12:49;7.47;;;4.40;;
4486;SDS011;2256;48.740;9.106;2024-01-30T07:15:17;5.70;;;3.88;;
4486;SDS011;2256;48.740;9.106;2024-01-30T07:17:46;6.65;;;3.45;;
4486;SDS011;2256;48.740;9.106;2024-01-30T07:20:13;4.82;;;3.10;;
4486;SDS011;2256;48.740;9.106;2024-01-30T07:22:40;10.32;;;3.70;;
4486;SDS011;2256;48.740;9.106;2024-01-30T07:25:07;7.13;;;3.45;;
4486;SDS011;2256;48.740;9.106;2024-01-30T07:27:34;4.07;;;3.00;;
4486;SDS011;2256;48.740;9.106;2024-01-30T07:30:01;5.30;;;2.95;;
4486;SDS011;2256;48.740;9.106;2024-01-30T07:32:31;5.10;;;3.35;;
4486;SDS011;2256;48.740;9.106;2024-01-30T07:34:57;3.38;;;2.28;;
4486;SDS011;2256;48.740;9.106;2024-01-30T07:37:24;15.00;;;3.00;;
4486;SDS011;2256;48.740;9.106;2024-01-30T07:39:51;3.65;;;2.60;;
4486;SDS011;2256;48.740;9.106;2024-01-30T07:42:20;5.25;;;2.80;;
4486;SDS011;2256;48.740;9.106;2024-01-30T07:44:48;3.83;;;2.08;;
4486;SDS011;2256;48.740;9.106;2024-01-30T07:47:15;2.83;;;2.50;;
4486;SDS011;2256;48.740;9.106;2024-01-30T07:49:43;3.95;;;2.53;;
4486;SDS011;2256;48.740;9.106;2024-01-30T07:52:10;4.60;;;2.83;;
4486;SDS011;2256;48.740;9.106;2024-01-30T07:54:38;4.00;;;2.58;;
4486;SDS011;2256;48.740;9.106;2024-01-30T07:57:05;4.35;;;2.78;;
4486;SDS011;2256;48.740;9.106;2024-01-30T07:59:32;4.22;;;2.60;;
4486;SDS011;2256;48.740;9.106;2024-01-30T08:01:59;3.55;;;2.70;;
4486;SDS011;2256;48.740;9.106;2024-01-30T08:04:25;12.25;;;3.80;;
4486;SDS011;2256;48.740;9.106;2024-01-30T08:06:53;12.75;;;3.28;;
4486;SDS011;2256;48.740;9.106;2024-01-30T08:09:20;7.30;;;3.80;;
4486;SDS011;2256;48.740;9.106;2024-01-30T08:11:47;10.23;;;3.45;;
4486;SDS011;2256;48.740;9.106;2024-01-30T08:14:15;7.10;;;3.40;;
4486;SDS011;2256;48.740;9.106;2024-01-30T08:16:42;7.90;;;3.60;;
4486;SDS011;2256;48.740;9.106;2024-01-30T08:19:08;5.65;;;3.42;;
4486;SDS011;2256;48.740;9.106;2024-01-30T08:21:35;11.00;;;4.40;;
4486;SDS011;2256;48.740;9.106;2024-01-30T08:24:04;18.50;;;4.43;;
4486;SDS011;2256;48.740;9.106;2024-01-30T08:26:32;10.77;;;3.63;;
4486;SDS011;2256;48.740;9.106;2024-01-30T08:28:59;10.07;;;4.20;;
4486;SDS011;2256;48.740;9.106;2024-01-30T08:31:26;12.47;;;4.73;;
4486;SDS011;2256;48.740;9.106;2024-01-30T08:33:53;10.60;;;3.90;;
4486;SDS011;2256;48.740;9.106;2024-01-30T08:36:19;5.40;;;3.23;;
4486;SDS011;2256;48.740;9.106;2024-01-30T08:38:46;8.93;;;4.13;;
4486;SDS011;2256;48.740;9.106;2024-01-30T08:41:15;9.63;;;3.97;;
4486;SDS011;2256;48.740;9.106;2024-01-30T08:43:42;8.27;;;3.07;;
4486;SDS011;2256;48.740;9.106;2024-01-30T08:46:10;5.20;;;3.13;;
4486;SDS011;2256;48.740;9.106;2024-01-30T08:48:37;6.67;;;3.00;;
4486;SDS011;2256;48.740;9.106;2024-01-30T08:51:04;5.00;;;3.50;;
4486;SDS011;2256;48.740;9.106;2024-01-30T08:53:33;8.87;;;3.73;;
4486;SDS011;2256;48.740;9.106;2024-01-30T08:56:00;4.53;;;3.03;;
4486;SDS011;2256;48.740;9.106;2024-01-30T08:58:29;4.23;;;2.50;;
4486;SDS011;2256;48.740;9.106;2024-01-30T09:00:55;5.37;;;3.30;;
4486;SDS011;2256;48.740;9.106;2024-01-30T09:03:22;6.03;;;2.83;;
4486;SDS011;2256;48.740;9.106;2024-01-30T09:05:49;4.60;;;2.90;;
4486;SDS011;2256;48.740;9.106;2024-01-30T09:08:16;10.23;;;3.53;;
4486;SDS011;2256;48.740;9.106;2024-01-30T09:10:42;6.70;;;3.90;;
4486;SDS011;2256;48.740;9.106;2024-01-30T09:13:10;5.40;;;3.13;;
4486;SDS011;2256;48.740;9.106;2024-01-30T09:15:38;9.27;;;4.13;;
4486;SDS011;2256;48.740;9.106;2024-01-30T09:18:05;11.83;;;2.53;;
4486;SDS011;2256;48.740;9.106;2024-01-30T09:20:32;5.30;;;3.13;;
4486;SDS011;2256;48.740;9.106;2024-01-30T09:22:59;4.10;;;2.67;;
4486;SDS011;2256;48.740;9.106;2024-01-30T09:25:26;11.60;;;3.20;;
4486;SDS011;2256;48.740;9.106;2024-01-30T09:27:53;4.40;;;2.53;;
4486;SDS011;2256;48.740;9.106;2024-01-30T09:30:20;6.50;;;3.60;;
4486;SDS011;2256;48.740;9.106;2024-01-30T09:32:48;4.23;;;2.60;;
4486;SDS011;2256;48.740;9.106;2024-01-30T09:35:15;4.07;;;2.77;;
4486;SDS011;2256;48.740;9.106;2024-01-30T09:37:42;7.80;;;2.90;;
4486;SDS011;2256;48.740;9.106;2024-01-30T09:40:09;6.83;;;3.37;;
4486;SDS011;2256;48.740;9.106;2024-01-30T09:42:36;3.60;;;2.67;;
4486;SDS011;2256;48.740;9.106;2024-01-30T09:45:03;7.37;;;3.13;;
4486;SDS011;2256;48.740;9.106;2024-01-30T09:47:31;13.30;;;3.27;;
4486;SDS011;2256;48.740;9.106;2024-01-30T09:50:00;12.53;;;2.80;;
4486;SDS011;2256;48.740;9.106;2024-01-30T09:52:28;5.40;;;3.00;;
4486;SDS011;2256;48.740;9.106;2024-01-30T09:54:55;12.73;;;2.60;;
4486;SDS011;2256;48.740;9.106;2024-01-30T09:57:24;6.47;;;2.23;;
4486;SDS011;2256;48.740;9.106;2024-01-30T09:59:52;6.57;;;2.57;;
4486;SDS011;2256;48.740;9.106;2024-01-30T10:02:20;5.43;;;2.93;;
4486;SDS011;2256;48.740;9.106;2024-01-30T10:04:47;7.80;;;2.63;;
4486;SDS011;2256;48.740;9.106;2024-01-30T10:07:17;14.03;;;3.20;;
4486;SDS011;2256;48.740;9.106;2024-01-30T10:09:44;3.93;;;2.67;;
4486;SDS011;2256;48.740;9.106;2024-01-30T10:12:11;7.63;;;2.90;;
4486;SDS011;2256;48.740;9.106;2024-01-30T10:14:38;3.57;;;2.60;;
4486;SDS011;2256;48.740;9.106;2024-01-30T10:17:05;6.17;;;3.03;;
4486;SDS011;2256;48.740;9.106;2024-01-30T10:19:33;4.77;;;2.67;;
4486;SDS011;2256;48.740;9.106;2024-01-30T10:22:00;4.80;;;2.90;;
4486;SDS011;2256;48.740;9.106;2024-01-30T10:24:28;3.43;;;2.43;;
4486;SDS011;2256;48.740;9.106;2024-01-30T10:26:55;7.37;;;2.60;;
4486;SDS011;2256;48.740;9.106;2024-01-30T10:29:23;10.30;;;3.10;;
4486;SDS011;2256;48.740;9.106;2024-01-30T10:32:00;3.00;;;2.07;;
4486;SDS011;2256;48.740;9.106;2024-01-30T10:34:27;3.40;;;3.10;;
4486;SDS011;2256;48.740;9.106;2024-01-30T10:36:58;5.40;;;2.77;;
4486;SDS011;2256;48.740;9.106;2024-01-30T10:39:34;9.20;;;2.70;;
4486;SDS011;2256;48.740;9.106;2024-01-30T10:42:05;6.07;;;2.30;;
4486;SDS011;2256;48.740;9.106;2024-01-30T10:44:34;5.50;;;2.50;;
4486;SDS011;2256;48.740;9.106;2024-01-30T10:47:08;4.57;;;2.83;;
4486;SDS011;2256;48.740;9.106;2024-01-30T10:49:39;4.90;;;2.50;;
4486;SDS011;2256;48.740;9.106;2024-01-30T10:52:07;3.57;;;2.17;;
4486;SDS011;2256;48.740;9.106;2024-01-30T10:54:36;8.80;;;2.70;;
4486;SDS011;2256;48.740;9.106;2024-01-30T10:57:04;4.30;;;2.67;;
4486;SDS011;2256;48.740;9.106;2024-01-30T10:59:32;5.27;;;2.33;;
4486;SDS011;2256;48.740;9.106;2024-01-30T11:01:59;5.60;;;2.50;;
4486;SDS011;2256;48.740;9.106;2024-01-30T11:04:26;4.57;;;2.17;;
4486;SDS011;2256;48.740;9.106;2024-01-30T11:06:53;7.80;;;3.33;;
4486;SDS011;2256;48.740;9.106;2024-01-30T11:09:20;2.93;;;2.30;;
4486;SDS011;2256;48.740;9.106;2024-01-30T11:11:56;5.13;;;2.50;;
4486;SDS011;2256;48.740;9.106;2024-01-30T11:14:25;8.60;;;2.70;;
4486;SDS011;2256;48.740;9.106;2024-01-30T11:16:52;6.63;;;2.60;;
4486;SDS011;2256;48.740;9.106;2024-01-30T11:19:22;3.50;;;2.13;;
4486;SDS011;2256;48.740;9.106;2024-01-30T11:21:50;3.80;;;2.40;;
4486;SDS011;2256;48.740;9.106;2024-01-30T11:24:19;6.87;;;2.47;;
4486;SDS011;2256;48.740;9.106;2024-01-30T11:26:47;4.20;;;2.60;;
4486;SDS011;2256;48.740;9.106;2024-01-30T11:29:16;4.83;;;2.33;;
4486;SDS011;2256;48.740;9.106;2024-01-30T11:31:51;9.13;;;2.70;;
4486;SDS011;2256;48.740;9.106;2024-01-30T11:34:18;5.00;;;2.83;;
4486;SDS011;2256;48.740;9.106;2024-01-30T11:36:48;10.40;;;2.47;;
4486;SDS011;2256;48.740;9.106;2024-01-30T11:39:20;4.87;;;2.43;;
4486;SDS011;2256;48.740;9.106;2024-01-30T11:41:47;9.17;;;3.00;;
4486;SDS011;2256;48.740;9.106;2024-01-30T11:44:18;4.73;;;2.60;;
4486;SDS011;2256;48.740;9.106;2024-01-30T11:46:45;4.10;;;2.60;;
4486;SDS011;2256;48.740;9.106;2024-01-30T11:49:12;3.80;;;2.80;;
4486;SDS011;2256;48.740;9.106;2024-01-30T11:51:39;8.53;;;2.60;;
4486;SDS011;2256;48.740;9.106;2024-01-30T11:54:07;5.10;;;2.57;;
4486;SDS011;2256;48.740;9.106;2024-01-30T11:56:33;4.27;;;2.30;;
4486;SDS011;2256;48.740;9.106;2024-01-30T11:59:00;3.93;;;2.77;;
4486;SDS011;2256;48.740;9.106;2024-01-30T12:01:29;4.43;;;3.10;;
4486;SDS011;2256;48.740;9.106;2024-01-30T12:03:56;6.57;;;2.80;;
4486;SDS011;2256;48.740;9.106;2024-01-30T12:06:23;3.37;;;2.20;;
4486;SDS011;2256;48.740;9.106;2024-01-30T12:08:57;7.40;;;2.20;;
4486;SDS011;2256;48.740;9.106;2024-01-30T12:11:25;2.70;;;2.03;;
4486;SDS011;2256;48.740;9.106;2024-01-30T12:13:52;4.13;;;2.53;;
4486;SDS011;2256;48.740;9.106;2024-01-30T12:16:19;5.83;;;2.67;;
4486;SDS011;2256;48.740;9.106;2024-01-30T12:18:48;3.07;;;2.20;;
4486;SDS011;2256;48.740;9.106;2024-01-30T12:21:16;5.40;;;2.10;;
4486;SDS011;2256;48.740;9.106;2024-01-30T12:23:42;8.10;;;2.47;;
4486;SDS011;2256;48.740;9.106;2024-01-30T12:26:10;5.03;;;2.40;;
4486;SDS011;2256;48.740;9.106;2024-01-30T12:28:47;2.93;;;2.17;;
4486;SDS011;2256;48.740;9.106;2024-01-30T12:31:15;5.57;;;3.20;;
4486;SDS011;2256;48.740;9.106;2024-01-30T12:33:42;2.53;;;2.03;;
4486;SDS011;2256;48.740;9.106;2024-01-30T12:36:10;6.43;;;2.73;;
4486;SDS011;2256;48.740;9.106;2024-01-30T12:38:37;7.73;;;2.53;;
4486;SDS011;2256;48.740;9.106;2024-01-30T12:41:06;8.30;;;2.50;;
4486;SDS011;2256;48.740;9.106;2024-01-30T12:43:34;4.80;;;2.90;;
4486;SDS011;2256;48.740;9.106;2024-01-30T12:46:02;8.23;;;2.67;;
4486;SDS011;2256;48.740;9.106;2024-01-30T12:48:29;2.97;;;2.00;;
4486;SDS011;2256;48.740;9.106;2024-01-30T12:50:56;3.63;;;2.50;;
4486;SDS011;2256;48.740;9.106;2024-01-30T12:53:24;4.67;;;2.53;;
4486;SDS011;2256;48.740;9.106;2024-01-30T12:55:51;3.47;;;2.40;;
4486;SDS011;2256;48.740;9.106;2024-01-30T12:58:19;5.60;;;2.73;;
4486;SDS011;2256;48.740;9.106;2024-01-30T13:00:46;4.17;;;2.63;;
4486;SDS011;2256;48.740;9.106;2024-01-30T13:03:13;6.73;;;2.40;;
4486;SDS011;2256;48.740;9.106;2024-01-30T13:05:40;3.50;;;2.53;;
4486;SDS011;2256;48.740;9.106;2024-01-30T13:08:06;4.93;;;2.43;;
4486;SDS011;2256;48.740;9.106;2024-01-30T13:10:35;11.20;;;2.60;;
4486;SDS011;2256;48.740;9.106;2024-01-30T13:13:02;4.60;;;2.27;;
4486;SDS011;2256;48.740;9.106;2024-01-30T13:15:29;2.63;;;2.17;;
4486;SDS011;2256;48.740;9.106;2024-01-30T13:17:56;4.07;;;2.20;;
4486;SDS011;2256;48.740;9.106;2024-01-30T13:20:22;4.83;;;2.63;;
4486;SDS011;2256;48.740;9.106;2024-01-30T13:22:49;4.40;;;2.20;;
4486;SDS011;2256;48.740;9.106;2024-01-30T13:25:16;4.30;;;2.07;;
4486;SDS011;2256;48.740;9.106;2024-01-30T13:27:45;2.97;;;2.37;;
4486;SDS011;2256;48.740;9.106;2024-01-30T13:30:12;4.17;;;2.47;;
4486;SDS011;2256;48.740;9.106;2024-01-30T13:32:39;5.93;;;2.20;;
4486;SDS011;2256;48.740;9.106;2024-01-30T13:35:09;4.60;;;2.60;;
4486;SDS011;2256;48.740;9.106;2024-01-30T13:37:36;4.20;;;2.50;;
4486;SDS011;2256;48.740;9.106;2024-01-30T13:40:03;7.13;;;2.37;;
4486;SDS011;2256;48.740;9.106;2024-01-30T13:42:32;4.43;;;2.63;;
4486;SDS011;2256;48.740;9.106;2024-01-30T13:45:00;4.47;;;2.17;;
4486;SDS011;2256;48.740;9.106;2024-01-30T13:47:27;6.50;;;2.40;;
4486;SDS011;2256;48.740;9.106;2024-01-30T13:49:54;3.93;;;2.27;;
4486;SDS011;2256;48.740;9.106;2024-01-30T13:52:21;4.97;;;2.43;;
4486;SDS011;2256;48.740;9.106;2024-01-30T13:54:48;3.30;;;2.03;;
4486;SDS011;2256;48.740;9.106;2024-01-30T13:57:14;4.30;;;2.30;;
4486;SDS011;2256;48.740;9.106;2024-01-30T13:59:41;4.60;;;2.43;;
4486;SDS011;2256;48.740;9.106;2024-01-30T14:02:10;5.87;;;2.77;;
4486;SDS011;2256;48.740;9.106;2024-01-30T14:04:36;5.00;;;2.90;;
4486;SDS011;2256;48.740;9.106;2024-01-30T14:07:03;5.97;;;2.83;;
4486;SDS011;2256;48.740;9.106;2024-01-30T14:09:32;4.73;;;2.40;;
4486;SDS011;2256;48.740;9.106;2024-01-30T14:11:59;5.20;;;2.27;;
4486;SDS011;2256;48.740;9.106;2024-01-30T14:14:26;3.83;;;2.57;;
4486;SDS011;2256;48.740;9.106;2024-01-30T14:16:53;5.77;;;3.00;;
4486;SDS011;2256;48.740;9.106;2024-01-30T14:19:21;5.17;;;2.70;;
4486;SDS011;2256;48.740;9.106;2024-01-30T14:21:48;10.13;;;3.23;;
4486;SDS011;2256;48.740;9.106;2024-01-30T14:24:14;6.17;;;3.20;;
4486;SDS011;2256;48.740;9.106;2024-01-30T14:26:42;3.67;;;2.23;;
4486;SDS011;2256;48.740;9.106;2024-01-30T14:29:09;18.07;;;2.53;;
4486;SDS011;2256;48.740;9.106;2024-01-30T14:31:36;5.40;;;2.40;;
4486;SDS011;2256;48.740;9.106;2024-01-30T14:34:03;3.73;;;2.80;;
4486;SDS011;2256;48.740;9.106;2024-01-30T14:36:31;5.30;;;2.90;;
4486;SDS011;2256;48.740;9.106;2024-01-30T14:38:58;5.77;;;2.50;;
4486;SDS011;2256;48.740;9.106;2024-01-30T14:41:24;4.03;;;2.20;;
4486;SDS011;2256;48.740;9.106;2024-01-30T14:43:51;4.97;;;2.50;;
4486;SDS011;2256;48.740;9.106;2024-01-30T14:46:18;11.97;;;2.50;;
4486;SDS011;2256;48.740;9.106;2024-01-30T14:48:45;5.67;;;2.20;;
4486;SDS011;2256;48.740;9.106;2024-01-30T14:51:12;5.67;;;2.30;;
4486;SDS011;2256;48.740;9.106;2024-01-30T14:53:40;5.00;;;2.50;;
4486;SDS011;2256;48.740;9.106;2024-01-30T14:56:07;7.73;;;2.40;;
4486;SDS011;2256;48.740;9.106;2024-01-30T14:58:34;5.50;;;2.60;;
4486;SDS011;2256;48.740;9.106;2024-01-30T15:01:01;6.50;;;2.60;;
4486;SDS011;2256;48.740;9.106;2024-01-30T15:03:28;10.50;;;2.90;;
4486;SDS011;2256;48.740;9.106;2024-01-30T15:05:55;4.60;;;2.20;;
4486;SDS011;2256;48.740;9.106;2024-01-30T15:08:23;5.97;;;2.17;;
4486;SDS011;2256;48.740;9.106;2024-01-30T15:10:51;11.33;;;2.93;;
4486;SDS011;2256;48.740;9.106;2024-01-30T15:13:19;7.20;;;2.50;;
4486;SDS011;2256;48.740;9.106;2024-01-30T15:15:45;4.50;;;2.57;;
4486;SDS011;2256;48.740;9.106;2024-01-30T15:18:12;4.13;;;2.87;;
4486;SDS011;2256;48.740;9.106;2024-01-30T15:20:39;18.40;;;5.47;;